AirNav   TITAN Aviation Fuels
 
 402 users online  

01F Hamilton Lake Seaplane Base
Hamilton, Indiana, USA

GOING TO HAMILTON?


FAA INFORMATION EFFECTIVE 22 APRIL 2021

Location

FAA Identifier: 01F
Lat/Long: 41-33-08.0000N 084-55-02.0000W
41-33.133333N 084-55.033333W
41.5522222,-84.9172222
(estimated)
Elevation: 900 ft. / 274 m (estimated)
Time zone: UTC -4 (UTC -5 during Standard Time)
Zip code: 46742

Seaplane Base Operations

Seaplane Base use: Open to the public
Activation date: 08/2007
Control tower: no
ARTCC: CHICAGO CENTER
FSS: TERRE HAUTE FLIGHT SERVICE STATION
NOTAMs facility: HUF (NOTAM-D service available)
Attendance: UNATNDD
Segmented circle: no

Seaplane Base Communications

CTAF: 122.9
WX AWOS-3 at ANQ (9 nm NW): 118.175 (260-668-5630)
WX AWOS-3 at GWB (16 nm SW): 124.15 (260-925-8225)
WX AWOS-3P at C62 (16 nm W): 119.925 (260-347-2967)

Nearby radio navigation aids

VOR radial/distance  VOR name  Freq  Var
LFDr198/31.4LITCHFIELD VOR/DME111.2005W
OLKr058/(31.9)WEBSTER LAKE VOR110.4003W
FWAr026/36.5FORT WAYNE VORTAC117.8006W

 
NDB name  Hdg/Dist  Freq  Var  ID
SHENK010/14.722705WGW --. .--
STURGIS128/27.938204WIRS .. .-. ...

Seaplane Base Services

Runway Information

Runway 18W/36W

Dimensions: 6000 x 1000 ft. / 1829 x 305 m
Surface: water
RUNWAY 18W  RUNWAY 36W
Traffic pattern: leftleft

Seaplane Base Ownership and Management from official FAA records

Ownership: Publicly-owned
Owner: INDIANA DEPT NATURAL RESOURCES
402 W. WASHINGTON ST., RM. W-255D
INDIANAPOLIS, IN 46204
Phone (317) 232-0935
Manager: LT. KENTON TURNER
402 W. WASHINGTON ST., RM. W-255D
INDIANAPOLIS, IN 46204
Phone (317) 232-0395
BOATING LAW ADMINISTRATOR.

Additional Remarks

SEAPLANE OPS PROHIBITED BTN SS-SR. EXPECT HEAVY BOAT TRAFFIC BETWEEN MEMORIAL DAY AND LABOR DAY. DO NOT BLOCK BOAT RAMPS, SEAPLANE DOCKING AREAS LIMITED.
FOR CD CTC CHICAGO ARTCC AT 630-906-8921.

Instrument Procedures

There are no published instrument procedures at 01F.

Some nearby airports with instrument procedures:

KANQ - Tri-State Steuben County Airport (9 nm NW)
KGWB - De Kalb County Airport (16 nm SW)
C62 - Kendallville Municipal Airport (16 nm W)
0G6 - Williams County Airport (19 nm E)
KOEB - Branch County Memorial Airport (24 nm N)
 
Loc | Ops | Rwys | IFR | FBO | Links
Com | Nav | Svcs | Stats | Notes
Area around 01F (Hamilton Lake Seaplane Base)
 
Road maps at: MapQuest Bing Google
 
Aerial photo
WARNING: Photo may not be current or correct
Aerial photo of 01F (Hamilton Lake Seaplane Base)
Photo by Mark Hansbarger
Photo taken 24-Sep-2008
looking north-northwest.

Do you have a better or more recent aerial photo of Hamilton Lake Seaplane Base that you would like to share? If so, please send us your photo.

 
Sectional chart

 
Airport distance calculator
Flying to Hamilton Lake Seaplane Base? Find the distance to fly.

From to 01F

Sunrise and sunset
Times for 15-May-2021
 Local
(UTC-4)
 Zulu
(UTC)
Morning civil twilight05:5009:50
Sunrise06:2110:21
Sunset20:5100:51
Evening civil twilight21:2201:22

Current date and time
Zulu (UTC)  15-May-2021 07:49:16
Local (UTC-4)  15-May-2021 03:49:16
 
METAR
KANQ 
9nm NW 
150735Z AUTO 00000KT 10SM FEW042 FEW095 07/06 A3025 RMK AO2
KGWB 
16nm SW 
150735Z AUTO 00000KT 10SM SCT095 08/03 A3025 RMK AO2
KC62 
16nm W 
150735Z AUTO 00000KT 10SM SCT095 07/05 A3026 RMK AO2 T00760048
TAF
KFWA 
37nm S 
150520Z 1506/1606 21003KT P6SM FEW250 FM151600 22008KT P6SM OVC080 FM160300 18003KT P6SM OVC040
NOTAMs
Click for the latest NOTAMs
NOTAMs are issued by the DoD/FAA and will open in a separate window not controlled by AirNav.

 

 
 

Would you like to see your business listed on this page?

 If your business provides an interesting product or service to pilots, flight crews, aircraft, or users of the Hamilton Lake Seaplane Base, you should consider listing it here.  To start the listing process, click on the button below
 
Add a business
 

Other Pages about Hamilton Lake Seaplane Base

Update a link
 
Copyright © AirNav, LLC. All rights reserved. Privacy Policy  Contact